Terminal Aerodrome Forecast
Issued by NWS

Home | Current Version | Previous Version | Text Only | Print | Product List | Glossary On
Versions: 1 2 3 4 5 6 7 8 9 10 11 12
000
FTUS45 KGJT 060537
TAFVEL
TAF
KVEL 060537Z 0606/0706 34004KT P6SM BKN090
     FM061900 00000KT P6SM BKN080
     FM070000 VRB03KT P6SM OVC030
     FM070500 01005KT P6SM BKN040=

USA.gov is the U.S. government's official web portal to all federal, state and local government web resources and services.